sensor_id;sensor_type;location;lat;lon;timestamp;P1;durP1;ratioP1;P2;durP2;ratioP2
80576;SDS011;69937;52.420;10.538;2023-05-25T00:00:32;13.23;;;5.90;;
80576;SDS011;69937;52.420;10.538;2023-05-25T00:05:33;10.65;;;5.60;;
80576;SDS011;69937;52.420;10.538;2023-05-25T00:10:33;11.25;;;5.95;;
80576;SDS011;69937;52.420;10.538;2023-05-25T00:15:34;19.90;;;6.78;;
80576;SDS011;69937;52.420;10.538;2023-05-25T00:20:35;16.20;;;6.43;;
80576;SDS011;69937;52.420;10.538;2023-05-25T00:25:35;12.82;;;6.22;;
80576;SDS011;69937;52.420;10.538;2023-05-25T00:30:36;11.90;;;6.13;;
80576;SDS011;69937;52.420;10.538;2023-05-25T00:35:37;10.75;;;6.00;;
80576;SDS011;69937;52.420;10.538;2023-05-25T00:40:38;11.20;;;5.80;;
80576;SDS011;69937;52.420;10.538;2023-05-25T00:45:40;17.65;;;6.97;;
80576;SDS011;69937;52.420;10.538;2023-05-25T00:50:41;12.35;;;6.63;;
80576;SDS011;69937;52.420;10.538;2023-05-25T00:55:52;13.38;;;6.57;;
80576;SDS011;69937;52.420;10.538;2023-05-25T01:01:24;12.23;;;5.65;;
80576;SDS011;69937;52.420;10.538;2023-05-25T01:06:32;16.80;;;7.25;;
80576;SDS011;69937;52.420;10.538;2023-05-25T01:11:45;16.08;;;6.45;;
80576;SDS011;69937;52.420;10.538;2023-05-25T01:22:58;13.52;;;7.90;;
80576;SDS011;69937;52.420;10.538;2023-05-25T01:28:17;13.10;;;6.07;;
80576;SDS011;69937;52.420;10.538;2023-05-25T01:33:28;18.85;;;7.20;;
80576;SDS011;69937;52.420;10.538;2023-05-25T01:38:32;10.52;;;6.72;;
80576;SDS011;69937;52.420;10.538;2023-05-25T01:43:41;14.13;;;7.22;;
80576;SDS011;69937;52.420;10.538;2023-05-25T01:49:01;12.60;;;6.90;;
80576;SDS011;69937;52.420;10.538;2023-05-25T01:59:38;9.68;;;6.85;;
80576;SDS011;69937;52.420;10.538;2023-05-25T02:04:48;11.75;;;6.75;;
80576;SDS011;69937;52.420;10.538;2023-05-25T02:09:55;15.68;;;7.00;;
80576;SDS011;69937;52.420;10.538;2023-05-25T02:14:59;17.80;;;8.95;;
80576;SDS011;69937;52.420;10.538;2023-05-25T02:20:00;14.38;;;7.32;;
80576;SDS011;69937;52.420;10.538;2023-05-25T02:30:34;14.32;;;7.20;;
80576;SDS011;69937;52.420;10.538;2023-05-25T02:35:50;14.95;;;10.50;;
80576;SDS011;69937;52.420;10.538;2023-05-25T02:46:47;12.05;;;7.20;;
80576;SDS011;69937;52.420;10.538;2023-05-25T02:57:26;13.40;;;7.38;;
80576;SDS011;69937;52.420;10.538;2023-05-25T03:07:35;16.35;;;7.93;;
80576;SDS011;69937;52.420;10.538;2023-05-25T03:29:24;17.20;;;8.00;;
80576;SDS011;69937;52.420;10.538;2023-05-25T03:34:50;16.33;;;9.18;;
80576;SDS011;69937;52.420;10.538;2023-05-25T03:40:03;15.32;;;8.40;;
80576;SDS011;69937;52.420;10.538;2023-05-25T03:45:43;21.38;;;8.85;;
80576;SDS011;69937;52.420;10.538;2023-05-25T03:51:11;16.60;;;8.10;;
80576;SDS011;69937;52.420;10.538;2023-05-25T03:56:15;14.95;;;8.30;;
80576;SDS011;69937;52.420;10.538;2023-05-25T04:01:19;14.13;;;8.38;;
80576;SDS011;69937;52.420;10.538;2023-05-25T04:06:20;15.63;;;9.05;;
80576;SDS011;69937;52.420;10.538;2023-05-25T04:11:20;26.65;;;8.50;;
80576;SDS011;69937;52.420;10.538;2023-05-25T04:16:31;11.45;;;8.95;;
80576;SDS011;69937;52.420;10.538;2023-05-25T04:21:56;14.15;;;8.95;;
80576;SDS011;69937;52.420;10.538;2023-05-25T04:26:57;19.40;;;12.63;;
80576;SDS011;69937;52.420;10.538;2023-05-25T04:32:05;15.88;;;10.25;;
80576;SDS011;69937;52.420;10.538;2023-05-25T04:37:08;15.15;;;10.45;;
80576;SDS011;69937;52.420;10.538;2023-05-25T04:42:09;16.33;;;9.90;;
80576;SDS011;69937;52.420;10.538;2023-05-25T04:47:11;20.88;;;10.65;;
80576;SDS011;69937;52.420;10.538;2023-05-25T04:52:12;16.02;;;10.43;;
80576;SDS011;69937;52.420;10.538;2023-05-25T04:57:16;22.35;;;11.98;;
80576;SDS011;69937;52.420;10.538;2023-05-25T05:07:46;20.05;;;11.05;;
80576;SDS011;69937;52.420;10.538;2023-05-25T05:13:05;21.55;;;10.98;;
80576;SDS011;69937;52.420;10.538;2023-05-25T05:18:06;18.85;;;9.85;;
80576;SDS011;69937;52.420;10.538;2023-05-25T05:23:08;18.40;;;9.77;;
80576;SDS011;69937;52.420;10.538;2023-05-25T05:28:11;17.30;;;9.77;;
80576;SDS011;69937;52.420;10.538;2023-05-25T05:33:21;14.98;;;8.32;;
80576;SDS011;69937;52.420;10.538;2023-05-25T05:38:42;15.40;;;9.20;;
80576;SDS011;69937;52.420;10.538;2023-05-25T05:49:15;15.77;;;11.38;;
80576;SDS011;69937;52.420;10.538;2023-05-25T05:59:49;18.15;;;9.77;;
80576;SDS011;69937;52.420;10.538;2023-05-25T06:05:13;16.83;;;9.02;;
80576;SDS011;69937;52.420;10.538;2023-05-25T06:10:15;19.13;;;9.07;;
80576;SDS011;69937;52.420;10.538;2023-05-25T06:20:38;19.85;;;9.80;;
80576;SDS011;69937;52.420;10.538;2023-05-25T06:25:39;13.40;;;8.85;;
80576;SDS011;69937;52.420;10.538;2023-05-25T06:30:40;17.83;;;9.27;;
80576;SDS011;69937;52.420;10.538;2023-05-25T06:35:47;18.95;;;11.25;;
80576;SDS011;69937;52.420;10.538;2023-05-25T06:41:01;19.10;;;9.18;;
80576;SDS011;69937;52.420;10.538;2023-05-25T06:51:32;14.30;;;10.75;;
80576;SDS011;69937;52.420;10.538;2023-05-25T06:56:36;15.02;;;9.10;;
80576;SDS011;69937;52.420;10.538;2023-05-25T07:07:15;16.85;;;9.65;;
80576;SDS011;69937;52.420;10.538;2023-05-25T07:12:49;23.00;;;10.90;;
80576;SDS011;69937;52.420;10.538;2023-05-25T07:17:53;18.10;;;9.43;;
80576;SDS011;69937;52.420;10.538;2023-05-25T07:23:07;16.60;;;9.02;;
80576;SDS011;69937;52.420;10.538;2023-05-25T07:28:27;20.63;;;9.05;;
80576;SDS011;69937;52.420;10.538;2023-05-25T07:33:27;21.00;;;9.50;;
80576;SDS011;69937;52.420;10.538;2023-05-25T07:38:28;17.23;;;9.73;;
80576;SDS011;69937;52.420;10.538;2023-05-25T07:43:29;19.00;;;9.52;;
80576;SDS011;69937;52.420;10.538;2023-05-25T07:48:29;19.02;;;9.45;;
80576;SDS011;69937;52.420;10.538;2023-05-25T07:53:30;19.00;;;9.63;;
80576;SDS011;69937;52.420;10.538;2023-05-25T07:58:31;16.40;;;10.05;;
80576;SDS011;69937;52.420;10.538;2023-05-25T08:03:32;17.77;;;10.23;;
80576;SDS011;69937;52.420;10.538;2023-05-25T08:08:32;17.75;;;9.75;;
80576;SDS011;69937;52.420;10.538;2023-05-25T08:13:35;19.05;;;9.00;;
80576;SDS011;69937;52.420;10.538;2023-05-25T08:18:36;19.05;;;9.30;;
80576;SDS011;69937;52.420;10.538;2023-05-25T08:23:36;19.38;;;9.20;;
80576;SDS011;69937;52.420;10.538;2023-05-25T08:28:41;19.45;;;11.50;;
80576;SDS011;69937;52.420;10.538;2023-05-25T08:33:42;16.67;;;9.18;;
80576;SDS011;69937;52.420;10.538;2023-05-25T08:38:42;21.80;;;9.38;;
80576;SDS011;69937;52.420;10.538;2023-05-25T08:43:43;13.25;;;9.32;;
80576;SDS011;69937;52.420;10.538;2023-05-25T08:48:43;13.45;;;7.47;;
80576;SDS011;69937;52.420;10.538;2023-05-25T08:53:47;15.52;;;8.63;;
80576;SDS011;69937;52.420;10.538;2023-05-25T08:59:02;17.58;;;8.60;;
80576;SDS011;69937;52.420;10.538;2023-05-25T09:04:11;18.00;;;8.25;;
80576;SDS011;69937;52.420;10.538;2023-05-25T09:09:18;13.63;;;7.22;;
80576;SDS011;69937;52.420;10.538;2023-05-25T09:14:19;10.82;;;6.63;;
80576;SDS011;69937;52.420;10.538;2023-05-25T09:19:21;16.17;;;6.40;;
80576;SDS011;69937;52.420;10.538;2023-05-25T09:24:21;13.68;;;6.80;;
80576;SDS011;69937;52.420;10.538;2023-05-25T09:29:23;14.40;;;7.38;;
80576;SDS011;69937;52.420;10.538;2023-05-25T09:34:23;12.07;;;6.88;;
80576;SDS011;69937;52.420;10.538;2023-05-25T09:39:32;15.18;;;6.55;;
80576;SDS011;69937;52.420;10.538;2023-05-25T09:44:34;13.63;;;6.55;;
80576;SDS011;69937;52.420;10.538;2023-05-25T09:49:35;12.18;;;6.30;;
80576;SDS011;69937;52.420;10.538;2023-05-25T09:54:36;12.65;;;6.22;;
80576;SDS011;69937;52.420;10.538;2023-05-25T09:59:38;11.23;;;6.63;;
80576;SDS011;69937;52.420;10.538;2023-05-25T10:04:38;12.43;;;5.82;;
80576;SDS011;69937;52.420;10.538;2023-05-25T10:09:40;11.50;;;6.63;;
80576;SDS011;69937;52.420;10.538;2023-05-25T10:14:45;19.25;;;6.90;;
80576;SDS011;69937;52.420;10.538;2023-05-25T10:19:54;11.00;;;6.60;;
80576;SDS011;69937;52.420;10.538;2023-05-25T10:25:06;12.40;;;7.32;;
80576;SDS011;69937;52.420;10.538;2023-05-25T10:30:13;13.05;;;4.95;;
80576;SDS011;69937;52.420;10.538;2023-05-25T10:35:14;10.02;;;5.10;;
80576;SDS011;69937;52.420;10.538;2023-05-25T10:40:15;11.20;;;5.90;;
80576;SDS011;69937;52.420;10.538;2023-05-25T10:45:17;9.82;;;4.72;;
80576;SDS011;69937;52.420;10.538;2023-05-25T10:50:25;17.45;;;5.50;;
80576;SDS011;69937;52.420;10.538;2023-05-25T10:55:40;9.95;;;4.80;;
80576;SDS011;69937;52.420;10.538;2023-05-25T11:00:41;11.88;;;5.55;;
80576;SDS011;69937;52.420;10.538;2023-05-25T11:05:43;9.88;;;4.53;;
80576;SDS011;69937;52.420;10.538;2023-05-25T11:10:50;13.18;;;4.47;;
80576;SDS011;69937;52.420;10.538;2023-05-25T11:31:58;9.65;;;4.47;;
80576;SDS011;69937;52.420;10.538;2023-05-25T11:37:00;11.10;;;4.65;;
80576;SDS011;69937;52.420;10.538;2023-05-25T11:42:01;10.07;;;4.25;;
80576;SDS011;69937;52.420;10.538;2023-05-25T11:47:05;10.07;;;4.28;;
80576;SDS011;69937;52.420;10.538;2023-05-25T11:52:14;9.65;;;3.90;;
80576;SDS011;69937;52.420;10.538;2023-05-25T11:57:22;13.43;;;4.32;;
80576;SDS011;69937;52.420;10.538;2023-05-25T12:02:24;10.40;;;4.57;;
80576;SDS011;69937;52.420;10.538;2023-05-25T12:07:25;10.60;;;3.90;;
80576;SDS011;69937;52.420;10.538;2023-05-25T12:12:27;9.75;;;3.75;;
80576;SDS011;69937;52.420;10.538;2023-05-25T12:17:28;10.85;;;4.30;;
80576;SDS011;69937;52.420;10.538;2023-05-25T12:22:29;7.28;;;3.47;;
80576;SDS011;69937;52.420;10.538;2023-05-25T12:27:30;7.35;;;3.90;;
80576;SDS011;69937;52.420;10.538;2023-05-25T12:32:30;8.63;;;3.33;;
80576;SDS011;69937;52.420;10.538;2023-05-25T12:37:31;9.10;;;3.67;;
80576;SDS011;69937;52.420;10.538;2023-05-25T12:42:33;8.57;;;3.17;;
80576;SDS011;69937;52.420;10.538;2023-05-25T12:47:33;8.95;;;2.65;;
80576;SDS011;69937;52.420;10.538;2023-05-25T12:52:38;7.38;;;2.50;;
80576;SDS011;69937;52.420;10.538;2023-05-25T12:57:43;7.80;;;2.65;;
80576;SDS011;69937;52.420;10.538;2023-05-25T13:02:43;6.70;;;3.47;;
80576;SDS011;69937;52.420;10.538;2023-05-25T13:07:45;8.18;;;3.08;;
80576;SDS011;69937;52.420;10.538;2023-05-25T13:12:46;8.75;;;2.83;;
80576;SDS011;69937;52.420;10.538;2023-05-25T13:17:47;6.10;;;3.03;;
80576;SDS011;69937;52.420;10.538;2023-05-25T13:22:49;7.30;;;2.80;;
80576;SDS011;69937;52.420;10.538;2023-05-25T13:27:51;7.53;;;2.40;;
80576;SDS011;69937;52.420;10.538;2023-05-25T13:32:53;6.32;;;2.60;;
80576;SDS011;69937;52.420;10.538;2023-05-25T13:37:53;7.82;;;2.50;;
80576;SDS011;69937;52.420;10.538;2023-05-25T13:42:54;7.80;;;2.67;;
80576;SDS011;69937;52.420;10.538;2023-05-25T13:47:55;10.25;;;3.20;;
80576;SDS011;69937;52.420;10.538;2023-05-25T13:52:55;5.63;;;2.67;;
80576;SDS011;69937;52.420;10.538;2023-05-25T13:57:56;6.40;;;2.85;;
80576;SDS011;69937;52.420;10.538;2023-05-25T14:02:57;7.25;;;2.85;;
80576;SDS011;69937;52.420;10.538;2023-05-25T14:07:57;5.07;;;2.53;;
80576;SDS011;69937;52.420;10.538;2023-05-25T14:13:01;6.57;;;2.65;;
80576;SDS011;69937;52.420;10.538;2023-05-25T14:18:02;8.13;;;3.15;;
80576;SDS011;69937;52.420;10.538;2023-05-25T14:23:03;7.57;;;3.10;;
80576;SDS011;69937;52.420;10.538;2023-05-25T14:28:03;7.63;;;2.80;;
80576;SDS011;69937;52.420;10.538;2023-05-25T14:33:04;6.93;;;2.22;;
80576;SDS011;69937;52.420;10.538;2023-05-25T14:38:04;9.00;;;2.90;;
80576;SDS011;69937;52.420;10.538;2023-05-25T14:43:05;9.40;;;2.63;;
80576;SDS011;69937;52.420;10.538;2023-05-25T14:48:06;8.35;;;2.70;;
80576;SDS011;69937;52.420;10.538;2023-05-25T14:53:06;10.85;;;2.42;;
80576;SDS011;69937;52.420;10.538;2023-05-25T14:58:07;5.05;;;2.22;;
80576;SDS011;69937;52.420;10.538;2023-05-25T15:03:08;23.90;;;2.78;;
80576;SDS011;69937;52.420;10.538;2023-05-25T15:08:08;6.75;;;2.13;;
80576;SDS011;69937;52.420;10.538;2023-05-25T15:13:09;7.80;;;2.20;;
80576;SDS011;69937;52.420;10.538;2023-05-25T15:18:10;4.55;;;2.05;;
80576;SDS011;69937;52.420;10.538;2023-05-25T15:23:10;8.23;;;2.75;;
80576;SDS011;69937;52.420;10.538;2023-05-25T15:28:11;6.10;;;2.50;;
80576;SDS011;69937;52.420;10.538;2023-05-25T15:33:12;8.82;;;2.17;;
80576;SDS011;69937;52.420;10.538;2023-05-25T15:38:13;8.00;;;2.10;;
80576;SDS011;69937;52.420;10.538;2023-05-25T15:43:13;7.35;;;1.98;;
80576;SDS011;69937;52.420;10.538;2023-05-25T15:48:14;9.25;;;2.28;;
80576;SDS011;69937;52.420;10.538;2023-05-25T15:53:14;7.40;;;2.45;;
80576;SDS011;69937;52.420;10.538;2023-05-25T15:58:15;4.95;;;1.73;;
80576;SDS011;69937;52.420;10.538;2023-05-25T16:03:16;7.30;;;1.92;;
80576;SDS011;69937;52.420;10.538;2023-05-25T16:08:17;7.03;;;2.22;;
80576;SDS011;69937;52.420;10.538;2023-05-25T16:13:18;9.63;;;2.13;;
80576;SDS011;69937;52.420;10.538;2023-05-25T16:18:18;7.82;;;2.35;;
80576;SDS011;69937;52.420;10.538;2023-05-25T16:23:19;11.63;;;2.30;;
80576;SDS011;69937;52.420;10.538;2023-05-25T16:28:20;6.70;;;2.55;;
80576;SDS011;69937;52.420;10.538;2023-05-25T16:33:21;9.15;;;2.20;;
80576;SDS011;69937;52.420;10.538;2023-05-25T16:38:22;6.75;;;2.25;;
80576;SDS011;69937;52.420;10.538;2023-05-25T16:43:22;9.43;;;2.20;;
80576;SDS011;69937;52.420;10.538;2023-05-25T16:48:24;6.18;;;1.77;;
80576;SDS011;69937;52.420;10.538;2023-05-25T16:53:25;8.82;;;2.10;;
80576;SDS011;69937;52.420;10.538;2023-05-25T16:58:26;8.68;;;2.97;;
80576;SDS011;69937;52.420;10.538;2023-05-25T17:03:26;15.73;;;3.15;;
80576;SDS011;69937;52.420;10.538;2023-05-25T17:08:27;9.25;;;2.30;;
80576;SDS011;69937;52.420;10.538;2023-05-25T17:13:28;8.13;;;2.20;;
80576;SDS011;69937;52.420;10.538;2023-05-25T17:18:28;10.00;;;2.70;;
80576;SDS011;69937;52.420;10.538;2023-05-25T17:23:29;11.55;;;2.22;;
80576;SDS011;69937;52.420;10.538;2023-05-25T17:28:30;8.32;;;2.63;;
80576;SDS011;69937;52.420;10.538;2023-05-25T17:33:31;10.68;;;2.65;;
80576;SDS011;69937;52.420;10.538;2023-05-25T17:38:32;10.88;;;2.97;;
80576;SDS011;69937;52.420;10.538;2023-05-25T17:43:35;8.23;;;2.28;;
80576;SDS011;69937;52.420;10.538;2023-05-25T17:48:36;14.70;;;2.58;;
80576;SDS011;69937;52.420;10.538;2023-05-25T17:53:37;10.35;;;2.22;;
80576;SDS011;69937;52.420;10.538;2023-05-25T17:58:37;8.40;;;2.50;;
80576;SDS011;69937;52.420;10.538;2023-05-25T18:03:38;10.27;;;2.97;;
80576;SDS011;69937;52.420;10.538;2023-05-25T18:08:40;8.27;;;2.45;;
80576;SDS011;69937;52.420;10.538;2023-05-25T18:13:40;8.43;;;2.53;;
80576;SDS011;69937;52.420;10.538;2023-05-25T18:18:41;12.57;;;2.22;;
80576;SDS011;69937;52.420;10.538;2023-05-25T18:23:41;17.15;;;3.15;;
80576;SDS011;69937;52.420;10.538;2023-05-25T18:28:42;16.08;;;3.08;;
80576;SDS011;69937;52.420;10.538;2023-05-25T18:33:43;13.15;;;2.80;;
80576;SDS011;69937;52.420;10.538;2023-05-25T18:38:43;11.57;;;3.03;;
80576;SDS011;69937;52.420;10.538;2023-05-25T18:43:44;11.98;;;2.63;;
80576;SDS011;69937;52.420;10.538;2023-05-25T18:48:46;17.77;;;3.33;;
80576;SDS011;69937;52.420;10.538;2023-05-25T18:53:47;10.30;;;2.67;;
80576;SDS011;69937;52.420;10.538;2023-05-25T18:58:48;14.18;;;2.60;;
80576;SDS011;69937;52.420;10.538;2023-05-25T19:03:51;13.48;;;3.10;;
80576;SDS011;69937;52.420;10.538;2023-05-25T19:08:51;12.60;;;2.75;;
80576;SDS011;69937;52.420;10.538;2023-05-25T19:13:54;12.15;;;3.30;;
80576;SDS011;69937;52.420;10.538;2023-05-25T19:18:54;14.13;;;2.95;;
80576;SDS011;69937;52.420;10.538;2023-05-25T19:23:55;10.35;;;2.83;;
80576;SDS011;69937;52.420;10.538;2023-05-25T19:28:56;15.75;;;3.22;;
80576;SDS011;69937;52.420;10.538;2023-05-25T19:33:57;13.55;;;2.88;;
80576;SDS011;69937;52.420;10.538;2023-05-25T19:38:58;19.10;;;3.83;;
80576;SDS011;69937;52.420;10.538;2023-05-25T19:43:58;17.23;;;3.17;;
80576;SDS011;69937;52.420;10.538;2023-05-25T19:48:59;13.48;;;2.83;;
80576;SDS011;69937;52.420;10.538;2023-05-25T19:54:00;21.38;;;2.85;;
80576;SDS011;69937;52.420;10.538;2023-05-25T19:59:00;15.45;;;3.25;;
80576;SDS011;69937;52.420;10.538;2023-05-25T20:04:01;21.45;;;4.07;;
80576;SDS011;69937;52.420;10.538;2023-05-25T20:09:02;18.25;;;3.95;;
80576;SDS011;69937;52.420;10.538;2023-05-25T20:14:02;18.10;;;3.75;;
80576;SDS011;69937;52.420;10.538;2023-05-25T20:19:03;16.42;;;4.10;;
80576;SDS011;69937;52.420;10.538;2023-05-25T20:24:06;19.73;;;4.13;;
80576;SDS011;69937;52.420;10.538;2023-05-25T20:29:06;13.45;;;3.97;;
80576;SDS011;69937;52.420;10.538;2023-05-25T20:34:07;17.02;;;4.15;;
80576;SDS011;69937;52.420;10.538;2023-05-25T20:39:07;17.17;;;3.78;;
80576;SDS011;69937;52.420;10.538;2023-05-25T20:44:08;18.77;;;3.25;;
80576;SDS011;69937;52.420;10.538;2023-05-25T20:49:09;18.98;;;4.10;;
80576;SDS011;69937;52.420;10.538;2023-05-25T20:54:09;22.65;;;4.38;;
80576;SDS011;69937;52.420;10.538;2023-05-25T20:59:10;12.45;;;3.30;;
80576;SDS011;69937;52.420;10.538;2023-05-25T21:04:10;19.52;;;5.05;;
80576;SDS011;69937;52.420;10.538;2023-05-25T21:09:11;17.73;;;4.25;;
80576;SDS011;69937;52.420;10.538;2023-05-25T21:14:11;22.10;;;4.63;;
80576;SDS011;69937;52.420;10.538;2023-05-25T21:19:12;16.17;;;3.97;;
80576;SDS011;69937;52.420;10.538;2023-05-25T21:24:12;19.42;;;5.03;;
80576;SDS011;69937;52.420;10.538;2023-05-25T21:29:13;19.33;;;3.85;;
80576;SDS011;69937;52.420;10.538;2023-05-25T21:34:13;11.98;;;4.53;;
80576;SDS011;69937;52.420;10.538;2023-05-25T21:39:14;10.95;;;3.47;;
80576;SDS011;69937;52.420;10.538;2023-05-25T21:44:14;18.67;;;4.10;;
80576;SDS011;69937;52.420;10.538;2023-05-25T21:49:15;16.98;;;4.90;;
80576;SDS011;69937;52.420;10.538;2023-05-25T21:54:15;19.45;;;5.03;;
80576;SDS011;69937;52.420;10.538;2023-05-25T21:59:16;15.00;;;4.05;;
80576;SDS011;69937;52.420;10.538;2023-05-25T22:04:17;26.00;;;4.32;;
80576;SDS011;69937;52.420;10.538;2023-05-25T22:09:17;15.13;;;3.90;;
80576;SDS011;69937;52.420;10.538;2023-05-25T22:14:18;20.63;;;4.57;;
80576;SDS011;69937;52.420;10.538;2023-05-25T22:19:18;20.88;;;4.20;;
80576;SDS011;69937;52.420;10.538;2023-05-25T22:24:19;13.05;;;5.05;;
80576;SDS011;69937;52.420;10.538;2023-05-25T22:29:19;13.57;;;4.28;;
80576;SDS011;69937;52.420;10.538;2023-05-25T22:34:21;24.05;;;4.90;;
80576;SDS011;69937;52.420;10.538;2023-05-25T22:39:21;16.77;;;4.95;;
80576;SDS011;69937;52.420;10.538;2023-05-25T22:44:22;22.38;;;4.40;;
80576;SDS011;69937;52.420;10.538;2023-05-25T22:49:22;18.10;;;4.15;;
80576;SDS011;69937;52.420;10.538;2023-05-25T22:54:23;17.23;;;4.25;;
80576;SDS011;69937;52.420;10.538;2023-05-25T22:59:24;18.80;;;6.05;;
80576;SDS011;69937;52.420;10.538;2023-05-25T23:04:24;21.13;;;4.32;;
80576;SDS011;69937;52.420;10.538;2023-05-25T23:09:25;15.25;;;4.53;;
80576;SDS011;69937;52.420;10.538;2023-05-25T23:14:25;21.17;;;5.45;;
80576;SDS011;69937;52.420;10.538;2023-05-25T23:19:26;18.17;;;6.03;;
80576;SDS011;69937;52.420;10.538;2023-05-25T23:24:26;21.30;;;4.80;;
80576;SDS011;69937;52.420;10.538;2023-05-25T23:29:27;23.92;;;4.63;;
80576;SDS011;69937;52.420;10.538;2023-05-25T23:34:27;25.17;;;4.82;;
80576;SDS011;69937;52.420;10.538;2023-05-25T23:39:28;29.35;;;5.03;;
80576;SDS011;69937;52.420;10.538;2023-05-25T23:44:29;14.55;;;3.83;;
80576;SDS011;69937;52.420;10.538;2023-05-25T23:49:29;18.85;;;3.75;;
80576;SDS011;69937;52.420;10.538;2023-05-25T23:54:30;21.08;;;4.78;;
80576;SDS011;69937;52.420;10.538;2023-05-25T23:59:30;19.55;;;4.65;;
